createdAt,value
2023-01-12T00:00:05.573Z,100290.44
2023-01-12T00:02:42.204Z,100348.66
2023-01-12T00:05:15.344Z,100353.97
2023-01-12T00:07:44.969Z,100346.31
2023-01-12T00:10:14.656Z,100328.38
2023-01-12T00:12:44.321Z,100272.59
2023-01-12T00:15:14.426Z,100335.75
2023-01-12T00:17:44.085Z,100328.94
2023-01-12T00:20:16.721Z,100332.19
2023-01-12T00:22:47.912Z,100334.63
2023-01-12T00:25:17.646Z,100328.78
2023-01-12T00:27:47.295Z,100329.75
2023-01-12T00:30:17.083Z,100348.53
2023-01-12T00:32:46.754Z,100344.25
2023-01-12T00:35:19.265Z,100338.16
2023-01-12T00:37:48.940Z,100329.72
2023-01-12T00:40:18.943Z,100333.47
2023-01-12T00:43:01.111Z,100336.16
2023-01-12T00:45:30.848Z,100331.97
2023-01-12T00:48:00.473Z,100311.63
2023-01-12T00:50:32.792Z,100339.88
2023-01-12T00:53:02.435Z,100328.00
2023-01-12T00:55:32.123Z,100307.25
2023-01-12T00:58:01.935Z,100328.81
2023-01-12T01:00:31.619Z,100337.44
2023-01-12T01:03:01.516Z,100326.34
2023-01-12T01:05:33.812Z,100318.91
2023-01-12T01:08:03.490Z,100330.63
2023-01-12T01:10:33.102Z,100322.91
2023-01-12T01:13:02.739Z,100323.97
2023-01-12T01:15:32.425Z,100292.00
2023-01-12T01:18:02.113Z,100322.19
2023-01-12T01:20:36.471Z,100326.50
2023-01-12T01:23:06.101Z,100281.03
2023-01-12T01:25:35.902Z,100319.59
2023-01-12T01:28:05.583Z,100314.47
2023-01-12T01:30:35.264Z,100312.94
2023-01-12T01:33:05.003Z,100303.47
2023-01-12T01:35:38.253Z,100330.59
2023-01-12T01:38:08.745Z,100319.56
2023-01-12T01:40:44.201Z,100330.63
2023-01-12T01:43:17.049Z,100329.75
2023-01-12T01:45:50.513Z,100329.72
2023-01-12T01:48:20.814Z,100316.84
2023-01-12T01:50:59.959Z,100317.94
2023-01-12T01:53:36.230Z,100337.31
2023-01-12T01:56:10.154Z,100327.59
2023-01-12T01:58:43.611Z,100316.41
2023-01-12T02:01:13.748Z,100330.13
2023-01-12T02:03:44.578Z,100320.09
2023-01-12T02:06:18.105Z,100324.72
2023-01-12T02:08:52.656Z,100327.13
2023-01-12T02:11:34.967Z,100319.31
2023-01-12T02:14:17.207Z,100316.75
2023-01-12T02:16:59.710Z,100281.59
2023-01-12T02:19:56.656Z,100322.91
2023-01-12T02:22:52.602Z,100285.25
2023-01-12T02:25:50.173Z,100307.66
2023-01-12T02:28:49.173Z,100303.38
2023-01-12T02:31:42.861Z,100287.78
2023-01-12T02:34:24.551Z,100290.78
2023-01-12T02:37:04.293Z,100299.00
2023-01-12T02:39:40.854Z,100292.97
2023-01-12T02:42:31.266Z,100272.66
2023-01-12T02:45:09.824Z,100280.59
2023-01-12T02:47:48.626Z,100278.03
2023-01-12T02:50:26.991Z,100269.91
2023-01-12T02:53:02.306Z,100285.44
2023-01-12T02:55:33.282Z,100270.97
2023-01-12T02:58:05.658Z,100272.06
2023-01-12T03:00:38.294Z,100269.28
2023-01-12T03:03:11.795Z,100271.16
2023-01-12T03:05:42.774Z,100276.38
2023-01-12T03:08:14.162Z,100249.88
2023-01-12T03:11:02.702Z,100263.72
2023-01-12T03:13:36.314Z,100249.00
2023-01-12T03:16:09.067Z,100259.47
2023-01-12T03:18:47.153Z,100250.81
2023-01-12T03:21:23.847Z,100256.81
2023-01-12T03:23:59.540Z,100199.56
2023-01-12T03:26:31.550Z,100227.13
2023-01-12T03:29:07.056Z,100236.56
2023-01-12T03:31:37.213Z,100224.00
2023-01-12T03:34:09.757Z,100241.13
2023-01-12T03:36:48.933Z,100240.13
2023-01-12T03:39:28.369Z,100215.41
2023-01-12T03:42:04.273Z,100237.53
2023-01-12T03:44:41.479Z,100229.00
2023-01-12T03:47:17.019Z,100214.38
2023-01-12T03:49:53.555Z,100214.38
2023-01-12T03:52:25.310Z,100214.31
2023-01-12T03:54:58.085Z,100228.13
2023-01-12T03:57:28.898Z,100227.50
2023-01-12T04:00:00.261Z,100205.13
2023-01-12T04:02:30.002Z,100219.59
2023-01-12T04:05:02.235Z,100215.88
2023-01-12T04:07:31.897Z,100218.78
2023-01-12T04:10:01.541Z,100205.25
2023-01-12T04:12:31.233Z,100201.91
2023-01-12T04:15:00.979Z,100203.81
2023-01-12T04:17:30.663Z,100191.72
2023-01-12T04:20:02.868Z,100191.69
2023-01-12T04:22:44.919Z,100185.78
2023-01-12T04:25:16.096Z,100153.38
2023-01-12T04:27:49.180Z,100167.13
2023-01-12T04:30:23.539Z,100159.59
2023-01-12T04:32:54.019Z,100157.91
2023-01-12T04:35:27.710Z,100153.59
2023-01-12T04:37:57.425Z,100151.97
2023-01-12T04:40:27.576Z,100140.41
2023-01-12T04:43:08.014Z,100143.69
2023-01-12T04:45:39.947Z,100128.25
2023-01-12T04:48:11.991Z,100135.06
2023-01-12T04:50:45.690Z,100132.38
2023-01-12T04:53:15.811Z,100134.94
2023-01-12T04:55:46.428Z,100128.97
2023-01-12T04:58:16.058Z,100112.84
2023-01-12T05:00:45.842Z,100108.00
2023-01-12T05:03:16.613Z,100107.94
2023-01-12T05:05:48.873Z,100091.84
2023-01-12T05:08:31.043Z,100099.41
2023-01-12T05:11:02.869Z,100094.56
2023-01-12T05:13:34.100Z,100087.59
2023-01-12T05:16:11.827Z,100093.66
2023-01-12T05:18:41.566Z,100050.75
2023-01-12T05:21:13.899Z,100089.41
2023-01-12T05:23:43.635Z,100088.84
2023-01-12T05:26:14.027Z,100067.41
2023-01-12T05:28:44.075Z,100039.16
2023-01-12T05:31:16.443Z,100069.88
2023-01-12T05:33:46.384Z,100069.13
2023-01-12T05:36:20.595Z,100070.94
2023-01-12T05:38:50.300Z,100068.28
2023-01-12T05:41:21.508Z,100058.09
2023-01-12T05:43:51.875Z,100042.81
2023-01-12T05:46:23.756Z,100019.78
2023-01-12T05:48:55.269Z,100029.19
2023-01-12T05:51:30.957Z,100025.91
2023-01-12T05:54:00.816Z,100020.00
2023-01-12T05:56:32.928Z,100017.22
2023-01-12T05:59:04.442Z,100002.03
2023-01-12T06:01:34.870Z,100004.53
2023-01-12T06:04:04.812Z,100007.13
2023-01-12T06:06:37.089Z,100011.22
2023-01-12T06:09:06.815Z,99986.47
2023-01-12T06:11:48.975Z,99997.66
2023-01-12T06:14:18.633Z,99982.31
2023-01-12T06:16:48.356Z,99949.31
2023-01-12T06:19:18.007Z,99977.22
2023-01-12T06:21:50.290Z,99989.28
2023-01-12T06:24:19.886Z,99985.00
2023-01-12T06:26:49.579Z,99979.97
2023-01-12T06:29:19.235Z,99958.72
2023-01-12T06:31:48.919Z,99940.78
2023-01-12T06:34:18.574Z,99961.47
2023-01-12T06:36:50.842Z,99910.09
2023-01-12T06:39:20.727Z,99959.84
2023-01-12T06:42:02.885Z,99954.50
2023-01-12T06:44:32.510Z,99952.00
2023-01-12T06:47:04.528Z,99937.44
2023-01-12T06:49:34.206Z,99954.53
2023-01-12T06:52:06.657Z,99930.63
2023-01-12T06:54:36.321Z,99942.63
2023-01-12T06:57:06.178Z,99941.66
2023-01-12T06:59:37.656Z,99940.03
2023-01-12T07:02:08.932Z,99935.72
2023-01-12T07:04:38.736Z,99933.00
2023-01-12T07:07:12.262Z,99936.66
2023-01-12T07:09:41.995Z,99920.47
2023-01-12T07:12:11.768Z,99917.97
2023-01-12T07:14:41.454Z,99919.56
2023-01-12T07:17:12.695Z,99917.00
2023-01-12T07:19:43.378Z,99904.06
2023-01-12T07:22:15.636Z,99891.31
2023-01-12T07:24:45.323Z,99888.03
2023-01-12T07:27:15.190Z,99878.50
2023-01-12T07:29:46.617Z,99858.72
2023-01-12T07:32:16.252Z,99841.09
2023-01-12T07:34:45.899Z,99870.88
2023-01-12T07:37:18.141Z,99880.19
2023-01-12T07:39:47.794Z,99793.09
2023-01-12T07:42:26.585Z,99854.72
2023-01-12T07:44:56.286Z,99852.06
2023-01-12T07:47:27.824Z,99846.91
2023-01-12T07:49:57.469Z,99841.16
2023-01-12T07:52:29.743Z,99815.72
2023-01-12T07:54:59.708Z,99802.88
2023-01-12T07:57:29.498Z,99772.91
2023-01-12T07:59:59.115Z,99813.78
2023-01-12T08:02:28.814Z,99833.31
2023-01-12T08:04:58.476Z,99817.13
2023-01-12T08:07:30.710Z,99824.09
2023-01-12T08:10:00.362Z,99801.22
2023-01-12T08:12:32.642Z,99803.63
2023-01-12T08:15:03.928Z,99835.84
2023-01-12T08:17:39.966Z,99844.69
2023-01-12T08:20:13.587Z,99836.19
2023-01-12T08:22:51.668Z,99798.38
2023-01-12T08:25:26.822Z,99822.63
2023-01-12T08:28:00.417Z,99820.88
2023-01-12T08:30:31.291Z,99813.75
2023-01-12T08:33:03.552Z,99836.06
2023-01-12T08:35:37.205Z,99794.25
2023-01-12T08:38:10.352Z,99826.63
2023-01-12T08:40:52.581Z,99804.50
2023-01-12T08:43:42.232Z,99818.25
2023-01-12T08:46:12.179Z,99826.75
2023-01-12T08:48:42.444Z,99796.72
2023-01-12T08:51:12.356Z,99834.41
2023-01-12T08:53:44.650Z,99828.53
2023-01-12T08:56:14.449Z,99823.56
2023-01-12T08:58:44.200Z,99812.34
2023-01-12T09:01:17.010Z,99843.88
2023-01-12T09:03:48.732Z,99819.19
2023-01-12T09:06:20.667Z,99816.03
2023-01-12T09:08:56.534Z,99846.03
2023-01-12T09:11:29.382Z,99827.91
2023-01-12T09:13:59.654Z,99834.00
2023-01-12T09:16:30.750Z,99830.38
2023-01-12T09:19:00.836Z,99849.94
2023-01-12T09:21:32.380Z,99831.28
2023-01-12T09:24:04.649Z,99858.44
2023-01-12T09:26:40.270Z,99839.59
2023-01-12T09:29:10.734Z,99832.78
2023-01-12T09:31:42.077Z,99828.50
2023-01-12T09:34:11.871Z,99859.25
2023-01-12T09:36:43.128Z,99862.69
2023-01-12T09:39:27.317Z,99861.09
2023-01-12T09:42:11.513Z,99847.44
2023-01-12T09:44:56.059Z,99832.91
2023-01-12T09:47:37.248Z,99841.59
2023-01-12T09:50:12.029Z,99862.88
2023-01-12T09:52:47.493Z,99868.06
2023-01-12T09:55:23.242Z,99870.78
2023-01-12T09:58:09.071Z,99861.47
2023-01-12T10:00:38.852Z,99870.16
2023-01-12T10:03:19.028Z,99860.81
2023-01-12T10:05:51.220Z,99859.97
2023-01-12T10:08:31.401Z,99866.88
2023-01-12T10:11:13.243Z,99867.75
2023-01-12T10:14:02.436Z,99857.59
2023-01-12T10:16:41.880Z,99876.28
2023-01-12T10:19:24.042Z,99864.50
2023-01-12T10:21:56.291Z,99858.56
2023-01-12T10:24:27.568Z,99873.91
2023-01-12T10:27:05.137Z,99867.03
2023-01-12T10:29:35.239Z,99873.03
2023-01-12T10:32:05.009Z,99884.97
2023-01-12T10:34:52.850Z,99879.09
2023-01-12T10:37:22.607Z,99858.63
2023-01-12T10:39:55.032Z,99854.47
2023-01-12T10:42:40.840Z,99868.94
2023-01-12T10:45:20.823Z,99862.09
2023-01-12T10:47:53.638Z,99877.66
2023-01-12T10:50:27.375Z,99858.78
2023-01-12T10:53:02.582Z,99883.59
2023-01-12T10:55:35.156Z,99881.88
2023-01-12T10:58:07.491Z,99879.31
2023-01-12T11:00:37.975Z,99865.69
2023-01-12T11:03:32.947Z,99885.50
2023-01-12T11:06:27.756Z,99871.81
2023-01-12T11:08:58.221Z,99867.47
2023-01-12T11:11:33.884Z,99895.69
2023-01-12T11:14:09.047Z,99889.81
2023-01-12T11:16:45.261Z,99892.44
2023-01-12T11:19:21.719Z,99880.66
2023-01-12T11:21:56.859Z,99854.31
2023-01-12T11:24:36.895Z,99863.63
2023-01-12T11:27:16.346Z,99864.63
2023-01-12T11:29:57.342Z,99887.72
2023-01-12T11:32:34.979Z,99877.53
2023-01-12T11:35:11.387Z,99876.03
2023-01-12T11:37:43.635Z,99885.31
2023-01-12T11:40:28.424Z,99871.66
2023-01-12T11:43:14.158Z,99870.00
2023-01-12T11:45:54.799Z,99891.38
2023-01-12T11:48:30.767Z,99881.16
2023-01-12T11:51:02.053Z,99882.84
2023-01-12T11:53:31.857Z,99831.53
2023-01-12T11:56:17.304Z,99863.22
2023-01-12T11:58:57.960Z,99881.16
2023-01-12T12:01:38.725Z,99863.13
2023-01-12T12:04:18.125Z,99832.44
2023-01-12T12:07:05.426Z,99880.31
2023-01-12T12:09:49.008Z,99870.03
2023-01-12T12:12:29.207Z,99863.25
2023-01-12T12:15:14.293Z,99819.72
2023-01-12T12:17:59.592Z,99849.63
2023-01-12T12:20:36.374Z,99854.69
2023-01-12T12:23:22.724Z,99875.25
2023-01-12T12:26:00.417Z,99872.69
2023-01-12T12:28:45.656Z,99871.75
2023-01-12T12:31:29.156Z,99883.66
2023-01-12T12:34:26.913Z,99862.38
2023-01-12T12:37:02.739Z,99881.25
2023-01-12T12:39:40.323Z,99865.81
2023-01-12T12:42:35.875Z,99859.91
2023-01-12T12:45:19.314Z,99845.50
2023-01-12T12:48:06.399Z,99867.63
2023-01-12T12:50:44.159Z,99870.22
2023-01-12T12:53:19.028Z,99876.22
2023-01-12T12:55:51.752Z,99846.41
2023-01-12T12:58:45.891Z,99865.25
2023-01-12T13:01:43.439Z,99871.97
2023-01-12T13:04:15.500Z,99870.38
2023-01-12T13:06:50.679Z,99868.66
2023-01-12T13:09:36.808Z,99834.50
2023-01-12T13:12:38.196Z,99868.69
2023-01-12T13:15:22.601Z,99838.72
2023-01-12T13:17:55.461Z,99868.69
2023-01-12T13:20:56.569Z,99868.69
2023-01-12T13:23:52.286Z,99864.44
2023-01-12T13:26:40.745Z,99855.09
2023-01-12T13:29:49.379Z,99872.13
2023-01-12T13:32:44.527Z,99874.72
2023-01-12T13:35:47.106Z,99857.72
2023-01-12T13:38:22.595Z,99853.38
2023-01-12T13:40:55.609Z,99869.63
2023-01-12T13:43:27.557Z,99877.28
2023-01-12T13:46:00.636Z,99848.31
2023-01-12T13:48:32.691Z,99832.81
2023-01-12T13:51:07.747Z,99881.47
2023-01-12T13:53:37.437Z,99881.50
2023-01-12T13:56:21.398Z,99887.44
2023-01-12T13:58:54.006Z,99890.81
2023-01-12T14:01:29.213Z,99862.72
2023-01-12T14:04:20.044Z,99888.34
2023-01-12T14:07:01.642Z,99884.84
2023-01-12T14:09:40.845Z,99882.25
2023-01-12T14:12:30.572Z,99893.34
2023-01-12T14:15:38.142Z,99894.28
2023-01-12T14:18:09.951Z,99888.31
2023-01-12T14:20:46.716Z,99890.88
2023-01-12T14:23:23.556Z,99880.66
2023-01-12T14:26:16.713Z,99878.03
2023-01-12T14:28:51.264Z,99895.06
2023-01-12T14:31:27.421Z,99830.13
2023-01-12T14:33:59.336Z,99906.88
2023-01-12T14:36:32.300Z,99883.09
2023-01-12T14:39:02.971Z,99887.38
2023-01-12T14:41:45.886Z,99882.28
2023-01-12T14:44:36.081Z,99872.00
2023-01-12T14:47:06.083Z,99829.31
2023-01-12T14:49:37.742Z,99797.69
2023-01-12T14:52:28.520Z,99887.41
2023-01-12T14:54:58.257Z,99847.22
2023-01-12T14:57:35.031Z,99842.97
2023-01-12T15:00:08.873Z,99820.78
2023-01-12T15:02:41.200Z,99885.59
2023-01-12T15:05:22.569Z,99868.50
2023-01-12T15:07:58.247Z,99844.69
2023-01-12T15:10:33.563Z,99834.41
2023-01-12T15:13:27.801Z,99882.28
2023-01-12T15:16:13.101Z,99898.47
2023-01-12T15:18:55.559Z,99893.38
2023-01-12T15:21:38.136Z,99896.69
2023-01-12T15:24:33.641Z,99894.19
2023-01-12T15:27:06.743Z,99886.56
2023-01-12T15:29:36.765Z,99879.63
2023-01-12T15:32:16.753Z,99866.00
2023-01-12T15:34:46.524Z,99883.09
2023-01-12T15:37:18.458Z,99782.38
2023-01-12T15:39:48.976Z,99833.53
2023-01-12T15:42:22.158Z,99859.22
2023-01-12T15:44:53.914Z,99842.91
2023-01-12T15:47:26.647Z,99884.78
2023-01-12T15:49:56.374Z,99806.25
2023-01-12T15:52:28.038Z,99864.28
2023-01-12T15:54:58.740Z,99882.25
2023-01-12T15:57:28.447Z,99884.88
2023-01-12T15:59:58.410Z,99879.63
2023-01-12T16:02:36.395Z,99797.66
2023-01-12T16:05:07.241Z,99779.81
2023-01-12T16:07:37.324Z,99766.16
2023-01-12T16:10:08.001Z,99850.63
2023-01-12T16:12:37.910Z,99864.41
2023-01-12T16:15:09.993Z,99848.16
2023-01-12T16:17:42.653Z,99866.22
2023-01-12T16:20:13.888Z,99870.53
2023-01-12T16:22:43.885Z,99864.53
2023-01-12T16:25:14.660Z,99865.34
2023-01-12T16:27:44.697Z,99867.13
2023-01-12T16:30:17.830Z,99771.47
2023-01-12T16:32:50.420Z,99829.53
2023-01-12T16:35:21.023Z,99754.31
2023-01-12T16:37:56.195Z,99825.22
2023-01-12T16:40:26.015Z,99853.44
2023-01-12T16:42:55.708Z,99867.97
2023-01-12T16:45:25.590Z,99803.97
2023-01-12T16:48:01.197Z,99833.88
2023-01-12T16:50:31.051Z,99848.41
2023-01-12T16:53:00.804Z,99856.03
2023-01-12T16:55:30.628Z,99831.25
2023-01-12T16:58:00.462Z,99867.91
2023-01-12T17:00:32.530Z,99851.72
2023-01-12T17:03:05.773Z,99828.63
2023-01-12T17:05:35.597Z,99855.94
2023-01-12T17:09:43.665Z,99853.28
2023-01-12T17:12:13.615Z,99796.97
2023-01-12T17:14:43.424Z,99862.75
2023-01-12T17:17:14.967Z,99850.84
2023-01-12T17:19:46.505Z,99846.63
2023-01-12T17:22:16.404Z,99843.22
2023-01-12T17:24:49.226Z,99818.50
2023-01-12T17:27:20.129Z,99833.84
2023-01-12T17:29:50.530Z,99832.94
2023-01-12T17:32:20.531Z,99836.38
2023-01-12T17:34:50.815Z,99804.00
2023-01-12T17:37:20.491Z,99822.78
2023-01-12T17:39:53.117Z,99818.50
2023-01-12T17:42:35.615Z,99832.16
2023-01-12T17:45:06.758Z,99765.50
2023-01-12T17:47:36.468Z,99814.16
2023-01-12T17:50:06.474Z,99818.44
2023-01-12T17:52:36.138Z,99831.22
2023-01-12T17:55:09.737Z,99811.59
2023-01-12T17:57:39.406Z,99811.63
2023-01-12T18:00:15.495Z,99824.41
2023-01-12T18:02:45.648Z,99829.50
2023-01-12T18:05:15.300Z,99809.09
2023-01-12T18:07:45.008Z,99800.50
2023-01-12T18:10:17.523Z,99805.69
2023-01-12T18:12:47.141Z,99761.28
2023-01-12T18:15:16.836Z,99821.09
2023-01-12T18:17:46.795Z,99783.59
2023-01-12T18:20:16.880Z,99794.59
2023-01-12T18:22:47.716Z,99815.97
2023-01-12T18:25:20.499Z,99821.00
2023-01-12T18:27:50.360Z,99763.88
2023-01-12T18:30:21.053Z,99786.81
2023-01-12T18:32:50.766Z,99790.34
2023-01-12T18:35:21.016Z,99817.56
2023-01-12T18:37:51.037Z,99782.69
2023-01-12T18:40:23.467Z,99788.66
2023-01-12T18:42:50.812Z,99810.84
2023-01-12T18:45:21.053Z,99792.94
2023-01-12T18:48:03.614Z,99802.38
2023-01-12T18:50:46.067Z,99802.31
2023-01-12T18:53:31.049Z,99793.81
2023-01-12T18:56:06.015Z,99787.03
2023-01-12T18:58:39.242Z,99803.19
2023-01-12T19:01:09.648Z,99784.41
2023-01-12T19:03:39.415Z,99792.97
2023-01-12T19:06:22.412Z,99805.78
2023-01-12T19:09:05.707Z,99769.94
2023-01-12T19:11:38.058Z,99809.97
2023-01-12T19:14:20.814Z,99797.19
2023-01-12T19:17:02.947Z,99800.53
2023-01-12T19:19:34.921Z,99720.38
2023-01-12T19:22:17.514Z,99781.03
2023-01-12T19:24:59.657Z,99775.97
2023-01-12T19:27:44.428Z,99797.16
2023-01-12T19:30:15.236Z,99780.09
2023-01-12T19:32:45.178Z,99781.00
2023-01-12T19:35:14.836Z,99783.44
2023-01-12T19:37:49.507Z,99798.81
2023-01-12T19:40:26.405Z,99787.00
2023-01-12T19:43:12.974Z,99775.03
2023-01-12T19:45:44.038Z,99763.06
2023-01-12T19:48:16.362Z,99794.69
2023-01-12T19:50:46.765Z,99795.53
2023-01-12T19:53:19.156Z,99766.59
2023-01-12T19:55:51.109Z,99757.13
2023-01-12T19:58:25.078Z,99810.00
2023-01-12T20:00:55.999Z,99806.63
2023-01-12T20:03:26.899Z,99810.00
2023-01-12T20:05:56.728Z,99758.88
2023-01-12T20:08:28.031Z,99792.16
2023-01-12T20:10:59.425Z,99810.88
2023-01-12T20:13:32.697Z,99761.34
2023-01-12T20:16:07.516Z,99814.31
2023-01-12T20:18:37.392Z,99789.44
2023-01-12T20:21:11.820Z,99809.16
2023-01-12T20:23:41.810Z,99742.66
2023-01-12T20:26:13.300Z,99785.28
2023-01-12T20:28:45.863Z,99807.44
2023-01-12T20:31:20.430Z,99814.31
2023-01-12T20:33:50.683Z,99790.31
2023-01-12T20:36:21.136Z,99814.31
2023-01-12T20:38:51.527Z,99801.41
2023-01-12T20:41:22.570Z,99815.13
2023-01-12T20:43:54.854Z,99715.22
2023-01-12T20:46:25.187Z,99815.09
2023-01-12T20:48:54.896Z,99767.28
2023-01-12T20:51:25.267Z,99798.75
2023-01-12T20:53:55.183Z,99798.84
2023-01-12T20:56:25.980Z,99810.00
2023-01-12T20:58:59.688Z,99825.31
2023-01-12T21:01:30.001Z,99703.41
2023-01-12T21:03:59.767Z,99789.69
2023-01-12T21:06:29.565Z,99792.28
2023-01-12T21:08:59.199Z,99772.69
2023-01-12T21:11:28.950Z,99797.41
2023-01-12T21:14:01.588Z,99785.50
2023-01-12T21:16:31.486Z,99797.44
2023-01-12T21:19:02.487Z,99796.47
2023-01-12T21:21:32.369Z,99712.97
2023-01-12T21:24:02.273Z,99786.31
2023-01-12T21:26:32.485Z,99785.41
2023-01-12T21:29:05.150Z,99776.09
2023-01-12T21:31:35.423Z,99770.03
2023-01-12T21:34:05.330Z,99765.03
2023-01-12T21:36:35.187Z,99761.59
2023-01-12T21:39:04.966Z,99783.72
2023-01-12T21:41:55.083Z,99779.41
2023-01-12T21:44:27.670Z,99781.13
2023-01-12T21:46:57.444Z,99783.66
2023-01-12T21:49:27.078Z,99769.19
2023-01-12T21:51:56.935Z,99778.66
2023-01-12T21:54:26.679Z,99770.16
2023-01-12T21:56:56.349Z,99768.50
2023-01-12T21:59:28.630Z,99751.41
2023-01-12T22:01:58.372Z,99770.22
2023-01-12T22:04:28.163Z,99754.88
2023-01-12T22:06:57.894Z,99760.78
2023-01-12T22:09:29.636Z,99764.19
2023-01-12T22:11:59.376Z,99768.44
2023-01-12T22:14:31.657Z,99752.25
2023-01-12T22:17:01.346Z,99736.09
2023-01-12T22:19:31.550Z,99769.28
2023-01-12T22:22:01.441Z,99747.91
2023-01-12T22:24:31.068Z,99740.31
2023-01-12T22:27:02.149Z,99759.09
2023-01-12T22:29:34.471Z,99723.38
2023-01-12T22:32:04.193Z,99752.31
2023-01-12T22:34:33.986Z,99703.72
2023-01-12T22:37:03.690Z,99670.53
2023-01-12T22:39:33.385Z,99695.22
2023-01-12T22:42:03.265Z,99720.84
2023-01-12T22:44:35.517Z,99733.59
2023-01-12T22:47:05.195Z,99742.91
2023-01-12T22:49:35.560Z,99738.72
2023-01-12T22:52:05.604Z,99748.00
2023-01-12T22:54:35.251Z,99728.47
2023-01-12T22:57:06.644Z,99707.19
2023-01-12T22:59:38.908Z,99733.63
2023-01-12T23:02:29.115Z,99744.66
2023-01-12T23:04:59.090Z,99750.59
2023-01-12T23:07:29.456Z,99734.44
2023-01-12T23:09:59.353Z,99756.53
2023-01-12T23:12:29.278Z,99732.63
2023-01-12T23:15:01.842Z,99748.88
2023-01-12T23:17:33.175Z,99740.31
2023-01-12T23:20:03.106Z,99753.13
2023-01-12T23:22:33.557Z,99724.25
2023-01-12T23:25:04.281Z,99730.13
2023-01-12T23:27:34.186Z,99745.47
2023-01-12T23:30:07.575Z,99745.50
2023-01-12T23:32:37.515Z,99719.03
2023-01-12T23:35:08.276Z,99727.59
2023-01-12T23:37:38.069Z,99749.78
2023-01-12T23:40:09.362Z,99743.78
2023-01-12T23:42:39.323Z,99718.22
2023-01-12T23:45:13.309Z,99739.50
2023-01-12T23:47:43.659Z,99728.47
2023-01-12T23:50:15.226Z,99731.94
2023-01-12T23:52:45.110Z,99732.78
2023-01-12T23:55:15.027Z,99684.25
2023-01-12T23:57:45.447Z,99685.09
